sensor_id;sensor_type;location;lat;lon;timestamp;temperature;humidity
29007;DHT22;16104;48.642;9.008;2022-12-29T00:01:35;11.10;59.20
29007;DHT22;16104;48.642;9.008;2022-12-29T00:06:32;11.20;59.30
29007;DHT22;16104;48.642;9.008;2022-12-29T00:11:27;11.20;59.10
29007;DHT22;16104;48.642;9.008;2022-12-29T00:16:23;11.30;59.10
29007;DHT22;16104;48.642;9.008;2022-12-29T00:21:20;11.30;59.10
29007;DHT22;16104;48.642;9.008;2022-12-29T00:26:35;11.40;59.00
29007;DHT22;16104;48.642;9.008;2022-12-29T00:31:49;11.40;59.00
29007;DHT22;16104;48.642;9.008;2022-12-29T00:37:03;11.50;59.00
29007;DHT22;16104;48.642;9.008;2022-12-29T00:42:06;11.50;59.00
29007;DHT22;16104;48.642;9.008;2022-12-29T00:47:20;11.50;58.50
29007;DHT22;16104;48.642;9.008;2022-12-29T00:52:16;11.50;58.60
29007;DHT22;16104;48.642;9.008;2022-12-29T00:57:12;11.60;59.30
29007;DHT22;16104;48.642;9.008;2022-12-29T02:03:12;12.00;58.10
29007;DHT22;16104;48.642;9.008;2022-12-29T02:08:08;12.10;57.90
29007;DHT22;16104;48.642;9.008;2022-12-29T02:13:05;12.20;57.70
29007;DHT22;16104;48.642;9.008;2022-12-29T03:04:27;12.70;56.60
29007;DHT22;16104;48.642;9.008;2022-12-29T03:09:39;12.70;56.40
29007;DHT22;16104;48.642;9.008;2022-12-29T03:14:44;12.80;56.30
29007;DHT22;16104;48.642;9.008;2022-12-29T04:00:43;13.10;56.60
29007;DHT22;16104;48.642;9.008;2022-12-29T04:05:39;13.20;56.70
29007;DHT22;16104;48.642;9.008;2022-12-29T04:10:34;13.20;56.90
29007;DHT22;16104;48.642;9.008;2022-12-29T04:15:30;13.10;56.70
29007;DHT22;16104;48.642;9.008;2022-12-29T04:20:25;13.10;56.70
29007;DHT22;16104;48.642;9.008;2022-12-29T04:25:39;13.10;56.90
29007;DHT22;16104;48.642;9.008;2022-12-29T04:30:35;13.10;57.00
29007;DHT22;16104;48.642;9.008;2022-12-29T04:35:30;13.10;57.10
29007;DHT22;16104;48.642;9.008;2022-12-29T04:40:26;13.10;57.10
29007;DHT22;16104;48.642;9.008;2022-12-29T04:45:21;13.10;57.20
29007;DHT22;16104;48.642;9.008;2022-12-29T04:50:17;13.10;57.20
29007;DHT22;16104;48.642;9.008;2022-12-29T04:55:12;13.10;57.20
29007;DHT22;16104;48.642;9.008;2022-12-29T05:00:09;13.10;57.20
29007;DHT22;16104;48.642;9.008;2022-12-29T05:05:05;13.10;57.40
29007;DHT22;16104;48.642;9.008;2022-12-29T05:10:01;13.10;57.40
29007;DHT22;16104;48.642;9.008;2022-12-29T05:14:56;13.10;57.40
29007;DHT22;16104;48.642;9.008;2022-12-29T05:19:52;13.10;57.40
29007;DHT22;16104;48.642;9.008;2022-12-29T05:24:47;13.10;57.30
29007;DHT22;16104;48.642;9.008;2022-12-29T05:29:43;13.10;57.20
29007;DHT22;16104;48.642;9.008;2022-12-29T05:34:38;13.10;57.10
29007;DHT22;16104;48.642;9.008;2022-12-29T05:39:34;13.00;57.00
29007;DHT22;16104;48.642;9.008;2022-12-29T05:44:29;13.00;57.00
29007;DHT22;16104;48.642;9.008;2022-12-29T05:49:25;13.00;57.10
29007;DHT22;16104;48.642;9.008;2022-12-29T05:54:20;13.00;57.10
29007;DHT22;16104;48.642;9.008;2022-12-29T05:59:16;13.00;57.10
29007;DHT22;16104;48.642;9.008;2022-12-29T06:04:11;13.10;57.10
29007;DHT22;16104;48.642;9.008;2022-12-29T06:09:09;13.10;57.00
29007;DHT22;16104;48.642;9.008;2022-12-29T06:14:06;13.10;56.80
29007;DHT22;16104;48.642;9.008;2022-12-29T06:19:01;13.10;56.70
29007;DHT22;16104;48.642;9.008;2022-12-29T06:23:57;13.10;56.60
29007;DHT22;16104;48.642;9.008;2022-12-29T06:28:52;13.10;56.60
29007;DHT22;16104;48.642;9.008;2022-12-29T06:33:48;13.10;56.20
29007;DHT22;16104;48.642;9.008;2022-12-29T06:38:43;13.00;56.20
29007;DHT22;16104;48.642;9.008;2022-12-29T06:43:39;13.00;56.20
29007;DHT22;16104;48.642;9.008;2022-12-29T06:48:34;13.00;56.20
29007;DHT22;16104;48.642;9.008;2022-12-29T06:53:30;13.00;56.20
29007;DHT22;16104;48.642;9.008;2022-12-29T06:58:25;13.00;56.20
29007;DHT22;16104;48.642;9.008;2022-12-29T07:03:21;13.00;56.30
29007;DHT22;16104;48.642;9.008;2022-12-29T07:08:16;13.00;56.20
29007;DHT22;16104;48.642;9.008;2022-12-29T07:13:12;13.00;56.40
29007;DHT22;16104;48.642;9.008;2022-12-29T07:18:07;13.00;56.50
29007;DHT22;16104;48.642;9.008;2022-12-29T07:23:03;13.00;56.50
29007;DHT22;16104;48.642;9.008;2022-12-29T07:27:58;13.00;56.40
29007;DHT22;16104;48.642;9.008;2022-12-29T07:32:54;12.90;56.50
29007;DHT22;16104;48.642;9.008;2022-12-29T07:37:49;12.90;56.60
29007;DHT22;16104;48.642;9.008;2022-12-29T07:42:45;12.90;56.60
29007;DHT22;16104;48.642;9.008;2022-12-29T07:47:41;12.90;56.60
29007;DHT22;16104;48.642;9.008;2022-12-29T07:52:36;12.90;56.70
29007;DHT22;16104;48.642;9.008;2022-12-29T07:57:32;12.90;56.80
29007;DHT22;16104;48.642;9.008;2022-12-29T08:02:27;12.90;57.00
29007;DHT22;16104;48.642;9.008;2022-12-29T08:07:23;12.90;57.00
29007;DHT22;16104;48.642;9.008;2022-12-29T08:12:19;13.00;57.20
29007;DHT22;16104;48.642;9.008;2022-12-29T08:17:15;12.90;57.10
29007;DHT22;16104;48.642;9.008;2022-12-29T08:22:10;12.90;57.10
29007;DHT22;16104;48.642;9.008;2022-12-29T08:27:06;13.00;57.20
29007;DHT22;16104;48.642;9.008;2022-12-29T08:32:01;13.00;57.10
29007;DHT22;16104;48.642;9.008;2022-12-29T08:36:57;13.00;57.00
29007;DHT22;16104;48.642;9.008;2022-12-29T08:41:54;13.10;57.00
29007;DHT22;16104;48.642;9.008;2022-12-29T08:46:49;13.10;57.00
29007;DHT22;16104;48.642;9.008;2022-12-29T08:51:45;13.10;57.00
29007;DHT22;16104;48.642;9.008;2022-12-29T08:56:41;13.10;56.90
29007;DHT22;16104;48.642;9.008;2022-12-29T09:01:36;13.10;56.80
29007;DHT22;16104;48.642;9.008;2022-12-29T09:06:35;13.10;56.80
29007;DHT22;16104;48.642;9.008;2022-12-29T09:11:31;13.10;56.80
29007;DHT22;16104;48.642;9.008;2022-12-29T09:16:26;13.10;56.80
29007;DHT22;16104;48.642;9.008;2022-12-29T09:21:22;13.20;56.80
29007;DHT22;16104;48.642;9.008;2022-12-29T09:26:17;13.20;56.90
29007;DHT22;16104;48.642;9.008;2022-12-29T09:31:13;13.20;56.90
29007;DHT22;16104;48.642;9.008;2022-12-29T09:36:09;13.30;56.80
29007;DHT22;16104;48.642;9.008;2022-12-29T09:41:29;13.40;57.70
29007;DHT22;16104;48.642;9.008;2022-12-29T09:46:35;13.50;56.80
29007;DHT22;16104;48.642;9.008;2022-12-29T09:51:32;13.50;56.70
29007;DHT22;16104;48.642;9.008;2022-12-29T09:56:29;13.70;56.70
29007;DHT22;16104;48.642;9.008;2022-12-29T10:01:43;13.80;56.90
29007;DHT22;16104;48.642;9.008;2022-12-29T10:06:56;13.90;56.40
29007;DHT22;16104;48.642;9.008;2022-12-29T10:17:26;14.10;56.50
29007;DHT22;16104;48.642;9.008;2022-12-29T10:22:35;14.20;56.50
29007;DHT22;16104;48.642;9.008;2022-12-29T10:27:34;14.20;56.20
29007;DHT22;16104;48.642;9.008;2022-12-29T10:32:50;14.30;56.20
29007;DHT22;16104;48.642;9.008;2022-12-29T10:37:55;14.40;55.90
29007;DHT22;16104;48.642;9.008;2022-12-29T10:42:57;14.50;55.70
29007;DHT22;16104;48.642;9.008;2022-12-29T10:48:00;14.50;55.80
29007;DHT22;16104;48.642;9.008;2022-12-29T10:53:00;14.60;55.60
29007;DHT22;16104;48.642;9.008;2022-12-29T10:58:02;14.60;55.50
29007;DHT22;16104;48.642;9.008;2022-12-29T11:03:08;14.60;55.30
29007;DHT22;16104;48.642;9.008;2022-12-29T11:08:14;14.60;55.60
29007;DHT22;16104;48.642;9.008;2022-12-29T11:13:16;14.60;55.50
29007;DHT22;16104;48.642;9.008;2022-12-29T11:18:31;14.70;55.70
29007;DHT22;16104;48.642;9.008;2022-12-29T11:23:41;14.70;55.40
29007;DHT22;16104;48.642;9.008;2022-12-29T11:28:38;14.70;55.70
29007;DHT22;16104;48.642;9.008;2022-12-29T11:33:36;14.70;56.00
29007;DHT22;16104;48.642;9.008;2022-12-29T11:38:35;14.70;56.30
29007;DHT22;16104;48.642;9.008;2022-12-29T11:43:32;14.80;56.20
29007;DHT22;16104;48.642;9.008;2022-12-29T11:48:33;14.90;56.20
29007;DHT22;16104;48.642;9.008;2022-12-29T11:53:44;14.80;56.00
29007;DHT22;16104;48.642;9.008;2022-12-29T11:58:41;14.90;56.90
29007;DHT22;16104;48.642;9.008;2022-12-29T12:03:41;14.80;56.30
29007;DHT22;16104;48.642;9.008;2022-12-29T12:08:44;14.70;56.50
29007;DHT22;16104;48.642;9.008;2022-12-29T12:19:20;14.60;57.10
29007;DHT22;16104;48.642;9.008;2022-12-29T12:34:36;14.50;58.50
29007;DHT22;16104;48.642;9.008;2022-12-29T12:39:47;14.40;58.50
29007;DHT22;16104;48.642;9.008;2022-12-29T13:00:18;14.20;59.60
29007;DHT22;16104;48.642;9.008;2022-12-29T13:10:48;14.20;60.00
29007;DHT22;16104;48.642;9.008;2022-12-29T13:16:06;14.30;60.00
29007;DHT22;16104;48.642;9.008;2022-12-29T13:21:11;14.30;59.80
29007;DHT22;16104;48.642;9.008;2022-12-29T13:26:20;14.30;59.70
29007;DHT22;16104;48.642;9.008;2022-12-29T13:31:37;14.30;59.80
29007;DHT22;16104;48.642;9.008;2022-12-29T13:36:41;14.20;60.00
29007;DHT22;16104;48.642;9.008;2022-12-29T13:41:45;14.20;60.10
29007;DHT22;16104;48.642;9.008;2022-12-29T13:46:44;14.20;60.30
29007;DHT22;16104;48.642;9.008;2022-12-29T13:51:49;14.10;60.40
29007;DHT22;16104;48.642;9.008;2022-12-29T14:02:10;14.10;60.70
29007;DHT22;16104;48.642;9.008;2022-12-29T14:07:15;14.10;60.70
29007;DHT22;16104;48.642;9.008;2022-12-29T14:12:29;14.10;60.70
29007;DHT22;16104;48.642;9.008;2022-12-29T14:17:25;14.10;60.40
29007;DHT22;16104;48.642;9.008;2022-12-29T14:22:25;14.10;60.50
29007;DHT22;16104;48.642;9.008;2022-12-29T14:42:21;14.10;60.10
29007;DHT22;16104;48.642;9.008;2022-12-29T14:47:38;14.00;60.70
29007;DHT22;16104;48.642;9.008;2022-12-29T14:52:56;14.00;60.00
29007;DHT22;16104;48.642;9.008;2022-12-29T14:58:00;14.00;59.80
29007;DHT22;16104;48.642;9.008;2022-12-29T15:03:17;13.90;59.80
29007;DHT22;16104;48.642;9.008;2022-12-29T15:08:17;13.90;59.70
29007;DHT22;16104;48.642;9.008;2022-12-29T15:13:21;13.90;59.60
29007;DHT22;16104;48.642;9.008;2022-12-29T15:18:29;13.90;59.70
29007;DHT22;16104;48.642;9.008;2022-12-29T15:23:25;13.80;59.60
29007;DHT22;16104;48.642;9.008;2022-12-29T15:28:22;13.80;59.60
29007;DHT22;16104;48.642;9.008;2022-12-29T15:33:19;13.80;59.80
29007;DHT22;16104;48.642;9.008;2022-12-29T15:38:24;13.70;59.70
29007;DHT22;16104;48.642;9.008;2022-12-29T15:48:42;13.70;59.70
29007;DHT22;16104;48.642;9.008;2022-12-29T15:53:38;13.70;59.70
29007;DHT22;16104;48.642;9.008;2022-12-29T15:58:44;13.70;60.30
29007;DHT22;16104;48.642;9.008;2022-12-29T16:03:40;13.60;59.60
29007;DHT22;16104;48.642;9.008;2022-12-29T16:08:37;13.70;59.70
29007;DHT22;16104;48.642;9.008;2022-12-29T16:13:39;13.60;59.60
29007;DHT22;16104;48.642;9.008;2022-12-29T16:18:36;13.60;59.90
29007;DHT22;16104;48.642;9.008;2022-12-29T16:23:32;13.60;60.30
29007;DHT22;16104;48.642;9.008;2022-12-29T16:28:39;13.60;60.40
29007;DHT22;16104;48.642;9.008;2022-12-29T16:33:44;13.60;61.00
29007;DHT22;16104;48.642;9.008;2022-12-29T16:38:40;13.50;61.20
29007;DHT22;16104;48.642;9.008;2022-12-29T16:43:37;13.50;61.20
29007;DHT22;16104;48.642;9.008;2022-12-29T16:48:47;13.40;61.50
29007;DHT22;16104;48.642;9.008;2022-12-29T16:53:50;13.30;62.00
29007;DHT22;16104;48.642;9.008;2022-12-29T16:58:47;13.20;62.20
29007;DHT22;16104;48.642;9.008;2022-12-29T17:03:50;13.20;62.30
29007;DHT22;16104;48.642;9.008;2022-12-29T17:08:48;13.10;62.50
29007;DHT22;16104;48.642;9.008;2022-12-29T17:13:44;13.00;62.50
29007;DHT22;16104;48.642;9.008;2022-12-29T17:18:39;13.00;62.70
29007;DHT22;16104;48.642;9.008;2022-12-29T17:23:35;13.00;62.90
29007;DHT22;16104;48.642;9.008;2022-12-29T17:28:31;12.90;63.00
29007;DHT22;16104;48.642;9.008;2022-12-29T17:33:31;12.90;63.20
29007;DHT22;16104;48.642;9.008;2022-12-29T17:38:31;12.80;63.50
29007;DHT22;16104;48.642;9.008;2022-12-29T17:43:29;12.80;63.50
29007;DHT22;16104;48.642;9.008;2022-12-29T17:48:24;12.70;63.60
29007;DHT22;16104;48.642;9.008;2022-12-29T17:53:23;12.70;63.60
29007;DHT22;16104;48.642;9.008;2022-12-29T17:58:25;12.70;63.90
29007;DHT22;16104;48.642;9.008;2022-12-29T18:08:22;12.60;64.30
29007;DHT22;16104;48.642;9.008;2022-12-29T18:13:26;12.60;64.30
29007;DHT22;16104;48.642;9.008;2022-12-29T18:18:24;12.60;64.60
29007;DHT22;16104;48.642;9.008;2022-12-29T18:23:27;12.60;64.60
29007;DHT22;16104;48.642;9.008;2022-12-29T18:28:24;12.50;64.80
29007;DHT22;16104;48.642;9.008;2022-12-29T18:33:20;12.50;64.40
29007;DHT22;16104;48.642;9.008;2022-12-29T18:38:16;12.40;64.60
29007;DHT22;16104;48.642;9.008;2022-12-29T18:43:13;12.40;64.80
29007;DHT22;16104;48.642;9.008;2022-12-29T18:48:08;12.40;65.00
29007;DHT22;16104;48.642;9.008;2022-12-29T18:53:04;12.30;64.90
29007;DHT22;16104;48.642;9.008;2022-12-29T18:57:59;12.20;64.80
29007;DHT22;16104;48.642;9.008;2022-12-29T19:02:55;12.20;64.70
29007;DHT22;16104;48.642;9.008;2022-12-29T19:07:51;12.10;64.90
29007;DHT22;16104;48.642;9.008;2022-12-29T19:12:48;12.00;64.90
29007;DHT22;16104;48.642;9.008;2022-12-29T19:17:43;12.00;65.10
29007;DHT22;16104;48.642;9.008;2022-12-29T19:22:39;11.90;65.10
29007;DHT22;16104;48.642;9.008;2022-12-29T19:27:34;11.90;65.20
29007;DHT22;16104;48.642;9.008;2022-12-29T19:32:30;11.80;65.30
29007;DHT22;16104;48.642;9.008;2022-12-29T19:37:25;11.70;65.60
29007;DHT22;16104;48.642;9.008;2022-12-29T19:42:21;11.60;65.80
29007;DHT22;16104;48.642;9.008;2022-12-29T19:47:16;11.60;66.00
29007;DHT22;16104;48.642;9.008;2022-12-29T19:52:12;11.50;66.90
29007;DHT22;16104;48.642;9.008;2022-12-29T19:57:07;11.50;66.20
29007;DHT22;16104;48.642;9.008;2022-12-29T20:02:03;11.40;66.40
29007;DHT22;16104;48.642;9.008;2022-12-29T20:06:58;11.40;66.70
29007;DHT22;16104;48.642;9.008;2022-12-29T20:11:54;11.30;66.70
29007;DHT22;16104;48.642;9.008;2022-12-29T20:16:49;11.30;66.70
29007;DHT22;16104;48.642;9.008;2022-12-29T20:21:44;11.20;66.60
29007;DHT22;16104;48.642;9.008;2022-12-29T20:26:41;11.20;66.70
29007;DHT22;16104;48.642;9.008;2022-12-29T20:31:37;11.20;66.90
29007;DHT22;16104;48.642;9.008;2022-12-29T20:36:35;11.10;66.90
29007;DHT22;16104;48.642;9.008;2022-12-29T20:41:31;11.10;67.90
29007;DHT22;16104;48.642;9.008;2022-12-29T20:46:27;11.00;67.00
29007;DHT22;16104;48.642;9.008;2022-12-29T20:51:22;11.00;67.10
29007;DHT22;16104;48.642;9.008;2022-12-29T20:56:20;11.00;66.90
29007;DHT22;16104;48.642;9.008;2022-12-29T21:01:19;10.90;67.10
29007;DHT22;16104;48.642;9.008;2022-12-29T21:06:15;10.90;67.10
29007;DHT22;16104;48.642;9.008;2022-12-29T21:11:10;10.80;67.00
29007;DHT22;16104;48.642;9.008;2022-12-29T21:16:08;10.80;67.20
29007;DHT22;16104;48.642;9.008;2022-12-29T21:21:06;10.70;67.40
29007;DHT22;16104;48.642;9.008;2022-12-29T21:26:08;10.70;67.40
29007;DHT22;16104;48.642;9.008;2022-12-29T21:31:25;10.70;67.60
29007;DHT22;16104;48.642;9.008;2022-12-29T21:36:21;10.60;67.20
29007;DHT22;16104;48.642;9.008;2022-12-29T21:41:16;10.60;67.00
29007;DHT22;16104;48.642;9.008;2022-12-29T21:46:12;10.50;66.90
29007;DHT22;16104;48.642;9.008;2022-12-29T21:51:12;10.50;66.80
29007;DHT22;16104;48.642;9.008;2022-12-29T21:56:26;10.40;66.60
29007;DHT22;16104;48.642;9.008;2022-12-29T22:01:22;10.40;66.50
29007;DHT22;16104;48.642;9.008;2022-12-29T22:06:37;10.30;66.50
29007;DHT22;16104;48.642;9.008;2022-12-29T22:11:51;10.20;66.80
29007;DHT22;16104;48.642;9.008;2022-12-29T22:17:05;10.20;66.70
29007;DHT22;16104;48.642;9.008;2022-12-29T22:22:00;10.10;66.50
29007;DHT22;16104;48.642;9.008;2022-12-29T22:26:56;10.10;66.70
29007;DHT22;16104;48.642;9.008;2022-12-29T22:31:51;10.10;66.90
29007;DHT22;16104;48.642;9.008;2022-12-29T22:36:47;10.00;67.10
29007;DHT22;16104;48.642;9.008;2022-12-29T22:41:42;10.00;67.30
29007;DHT22;16104;48.642;9.008;2022-12-29T22:46:38;10.00;67.40
29007;DHT22;16104;48.642;9.008;2022-12-29T22:51:33;10.00;67.50
29007;DHT22;16104;48.642;9.008;2022-12-29T22:56:29;9.90;67.50
29007;DHT22;16104;48.642;9.008;2022-12-29T23:01:24;9.90;67.60
29007;DHT22;16104;48.642;9.008;2022-12-29T23:06:20;9.90;67.70
29007;DHT22;16104;48.642;9.008;2022-12-29T23:11:15;9.90;67.90
29007;DHT22;16104;48.642;9.008;2022-12-29T23:16:12;9.80;67.90
29007;DHT22;16104;48.642;9.008;2022-12-29T23:21:08;9.80;68.10
29007;DHT22;16104;48.642;9.008;2022-12-29T23:26:04;9.80;68.20
29007;DHT22;16104;48.642;9.008;2022-12-29T23:30:59;9.80;68.30
29007;DHT22;16104;48.642;9.008;2022-12-29T23:35:55;9.80;68.40
29007;DHT22;16104;48.642;9.008;2022-12-29T23:40:51;9.80;68.50
29007;DHT22;16104;48.642;9.008;2022-12-29T23:45:46;9.80;68.70
29007;DHT22;16104;48.642;9.008;2022-12-29T23:50:42;9.80;68.60
29007;DHT22;16104;48.642;9.008;2022-12-29T23:55:42;9.70;68.70
